sensor_id;sensor_type;location;lat;lon;timestamp;temperature;humidity
41985;DHT22;28319;48.116;10.818;2022-09-17T00:02:44;11.00;99.90
41985;DHT22;28319;48.116;10.818;2022-09-17T00:07:46;11.00;99.90
41985;DHT22;28319;48.116;10.818;2022-09-17T00:12:50;11.00;99.90
41985;DHT22;28319;48.116;10.818;2022-09-17T00:17:53;10.90;99.90
41985;DHT22;28319;48.116;10.818;2022-09-17T00:22:57;10.90;99.90
41985;DHT22;28319;48.116;10.818;2022-09-17T00:28:00;11.00;99.90
41985;DHT22;28319;48.116;10.818;2022-09-17T00:33:02;10.90;99.90
41985;DHT22;28319;48.116;10.818;2022-09-17T00:38:05;10.90;99.90
41985;DHT22;28319;48.116;10.818;2022-09-17T00:43:10;11.00;99.90
41985;DHT22;28319;48.116;10.818;2022-09-17T00:48:21;11.00;99.90
41985;DHT22;28319;48.116;10.818;2022-09-17T00:53:23;11.00;99.90
41985;DHT22;28319;48.116;10.818;2022-09-17T00:58:27;10.70;99.90
41985;DHT22;28319;48.116;10.818;2022-09-17T01:03:30;10.60;99.90
41985;DHT22;28319;48.116;10.818;2022-09-17T01:08:39;10.70;99.90
41985;DHT22;28319;48.116;10.818;2022-09-17T01:13:55;10.90;99.90
41985;DHT22;28319;48.116;10.818;2022-09-17T01:19:11;10.80;99.90
41985;DHT22;28319;48.116;10.818;2022-09-17T01:24:45;10.80;99.90
41985;DHT22;28319;48.116;10.818;2022-09-17T01:30:04;10.70;99.90
41985;DHT22;28319;48.116;10.818;2022-09-17T01:35:18;10.70;99.90
41985;DHT22;28319;48.116;10.818;2022-09-17T01:40:25;10.60;99.90
41985;DHT22;28319;48.116;10.818;2022-09-17T01:45:32;10.60;99.90
41985;DHT22;28319;48.116;10.818;2022-09-17T01:50:41;10.60;99.90
41985;DHT22;28319;48.116;10.818;2022-09-17T01:55:44;10.70;99.90
41985;DHT22;28319;48.116;10.818;2022-09-17T02:00:52;10.30;99.90
41985;DHT22;28319;48.116;10.818;2022-09-17T02:05:59;10.30;99.90
41985;DHT22;28319;48.116;10.818;2022-09-17T02:11:06;10.30;99.90
41985;DHT22;28319;48.116;10.818;2022-09-17T02:16:12;10.10;99.90
41985;DHT22;28319;48.116;10.818;2022-09-17T02:21:26;10.20;99.90
41985;DHT22;28319;48.116;10.818;2022-09-17T02:26:29;10.20;99.90
41985;DHT22;28319;48.116;10.818;2022-09-17T02:31:32;10.30;99.90
41985;DHT22;28319;48.116;10.818;2022-09-17T02:36:36;10.00;99.90
41985;DHT22;28319;48.116;10.818;2022-09-17T02:41:45;10.10;99.90
41985;DHT22;28319;48.116;10.818;2022-09-17T02:46:59;10.10;99.90
41985;DHT22;28319;48.116;10.818;2022-09-17T02:52:15;10.00;99.90
41985;DHT22;28319;48.116;10.818;2022-09-17T02:57:23;9.90;99.90
41985;DHT22;28319;48.116;10.818;2022-09-17T03:02:29;9.80;99.90
41985;DHT22;28319;48.116;10.818;2022-09-17T03:07:34;9.90;99.90
41985;DHT22;28319;48.116;10.818;2022-09-17T03:12:37;9.80;99.90
41985;DHT22;28319;48.116;10.818;2022-09-17T03:17:39;9.90;99.90
41985;DHT22;28319;48.116;10.818;2022-09-17T03:22:42;9.90;99.90
41985;DHT22;28319;48.116;10.818;2022-09-17T03:27:44;9.80;99.90
41985;DHT22;28319;48.116;10.818;2022-09-17T03:32:47;9.70;99.90
41985;DHT22;28319;48.116;10.818;2022-09-17T03:37:51;9.70;99.90
41985;DHT22;28319;48.116;10.818;2022-09-17T03:42:53;9.70;99.90
41985;DHT22;28319;48.116;10.818;2022-09-17T03:47:54;9.70;99.90
41985;DHT22;28319;48.116;10.818;2022-09-17T03:52:58;9.70;99.90
41985;DHT22;28319;48.116;10.818;2022-09-17T03:58:00;9.70;99.90
41985;DHT22;28319;48.116;10.818;2022-09-17T04:03:02;9.70;99.90
41985;DHT22;28319;48.116;10.818;2022-09-17T04:08:05;9.60;99.90
41985;DHT22;28319;48.116;10.818;2022-09-17T04:13:08;9.60;99.90
41985;DHT22;28319;48.116;10.818;2022-09-17T04:18:10;9.70;99.90
41985;DHT22;28319;48.116;10.818;2022-09-17T04:23:13;9.60;99.90
41985;DHT22;28319;48.116;10.818;2022-09-17T04:28:15;9.60;99.90
41985;DHT22;28319;48.116;10.818;2022-09-17T04:33:17;9.50;99.90
41985;DHT22;28319;48.116;10.818;2022-09-17T04:38:21;9.50;99.90
41985;DHT22;28319;48.116;10.818;2022-09-17T04:43:23;9.40;99.90
41985;DHT22;28319;48.116;10.818;2022-09-17T04:48:25;9.50;99.90
41985;DHT22;28319;48.116;10.818;2022-09-17T04:53:28;9.40;99.90
41985;DHT22;28319;48.116;10.818;2022-09-17T04:58:30;9.40;99.90
41985;DHT22;28319;48.116;10.818;2022-09-17T05:03:32;9.40;99.90
41985;DHT22;28319;48.116;10.818;2022-09-17T05:08:36;9.30;99.90
41985;DHT22;28319;48.116;10.818;2022-09-17T05:13:38;9.20;99.90
41985;DHT22;28319;48.116;10.818;2022-09-17T05:18:40;9.30;99.90
41985;DHT22;28319;48.116;10.818;2022-09-17T05:23:43;9.30;99.90
41985;DHT22;28319;48.116;10.818;2022-09-17T05:28:45;9.40;99.90
41985;DHT22;28319;48.116;10.818;2022-09-17T05:33:47;9.40;99.90
41985;DHT22;28319;48.116;10.818;2022-09-17T05:38:52;9.40;99.90
41985;DHT22;28319;48.116;10.818;2022-09-17T05:43:54;9.30;99.90
41985;DHT22;28319;48.116;10.818;2022-09-17T05:48:56;9.30;99.90
41985;DHT22;28319;48.116;10.818;2022-09-17T05:53:59;9.40;99.90
41985;DHT22;28319;48.116;10.818;2022-09-17T05:59:01;9.40;99.90
41985;DHT22;28319;48.116;10.818;2022-09-17T06:04:03;9.30;99.90
41985;DHT22;28319;48.116;10.818;2022-09-17T06:09:06;9.20;99.90
41985;DHT22;28319;48.116;10.818;2022-09-17T06:14:08;9.20;99.90
41985;DHT22;28319;48.116;10.818;2022-09-17T06:19:10;9.30;99.90
41985;DHT22;28319;48.116;10.818;2022-09-17T06:24:14;9.30;99.90
41985;DHT22;28319;48.116;10.818;2022-09-17T06:29:16;9.30;99.90
41985;DHT22;28319;48.116;10.818;2022-09-17T06:34:18;9.30;99.90
41985;DHT22;28319;48.116;10.818;2022-09-17T06:39:21;9.40;99.90
41985;DHT22;28319;48.116;10.818;2022-09-17T06:44:23;9.40;99.90
41985;DHT22;28319;48.116;10.818;2022-09-17T06:49:25;9.40;99.90
41985;DHT22;28319;48.116;10.818;2022-09-17T06:54:29;9.40;99.90
41985;DHT22;28319;48.116;10.818;2022-09-17T06:59:31;9.50;99.90
41985;DHT22;28319;48.116;10.818;2022-09-17T07:04:33;9.40;99.90
41985;DHT22;28319;48.116;10.818;2022-09-17T07:09:37;9.50;99.90
41985;DHT22;28319;48.116;10.818;2022-09-17T07:14:39;9.50;99.90
41985;DHT22;28319;48.116;10.818;2022-09-17T07:19:41;9.50;99.90
41985;DHT22;28319;48.116;10.818;2022-09-17T07:24:44;9.50;99.90
41985;DHT22;28319;48.116;10.818;2022-09-17T07:29:46;9.60;99.90
41985;DHT22;28319;48.116;10.818;2022-09-17T07:34:48;9.70;99.90
41985;DHT22;28319;48.116;10.818;2022-09-17T07:39:52;9.70;99.90
41985;DHT22;28319;48.116;10.818;2022-09-17T07:44:54;9.80;99.90
41985;DHT22;28319;48.116;10.818;2022-09-17T07:49:56;9.70;99.90
41985;DHT22;28319;48.116;10.818;2022-09-17T07:54:59;9.80;99.90
41985;DHT22;28319;48.116;10.818;2022-09-17T08:00:02;9.90;99.90
41985;DHT22;28319;48.116;10.818;2022-09-17T08:05:04;10.00;99.90
41985;DHT22;28319;48.116;10.818;2022-09-17T08:10:09;10.00;99.90
41985;DHT22;28319;48.116;10.818;2022-09-17T08:15:11;10.00;99.90
41985;DHT22;28319;48.116;10.818;2022-09-17T08:20:13;10.10;99.90
41985;DHT22;28319;48.116;10.818;2022-09-17T08:25:17;10.10;99.90
41985;DHT22;28319;48.116;10.818;2022-09-17T08:30:19;10.30;99.90
41985;DHT22;28319;48.116;10.818;2022-09-17T08:35:21;10.30;99.90
41985;DHT22;28319;48.116;10.818;2022-09-17T08:40:25;10.30;99.90
41985;DHT22;28319;48.116;10.818;2022-09-17T08:45:28;10.40;99.90
41985;DHT22;28319;48.116;10.818;2022-09-17T08:50:31;10.60;99.90
41985;DHT22;28319;48.116;10.818;2022-09-17T08:55:39;10.80;99.90
41985;DHT22;28319;48.116;10.818;2022-09-17T09:00:47;10.60;99.90
41985;DHT22;28319;48.116;10.818;2022-09-17T09:05:52;10.90;99.90
41985;DHT22;28319;48.116;10.818;2022-09-17T09:10:58;10.90;99.90
41985;DHT22;28319;48.116;10.818;2022-09-17T09:16:02;10.70;99.90
41985;DHT22;28319;48.116;10.818;2022-09-17T09:21:17;10.70;99.90
41985;DHT22;28319;48.116;10.818;2022-09-17T09:26:34;10.80;99.90
41985;DHT22;28319;48.116;10.818;2022-09-17T09:31:54;10.80;99.90
41985;DHT22;28319;48.116;10.818;2022-09-17T09:37:16;10.60;99.90
41985;DHT22;28319;48.116;10.818;2022-09-17T09:42:26;10.60;99.90
41985;DHT22;28319;48.116;10.818;2022-09-17T09:47:38;10.50;99.90
41985;DHT22;28319;48.116;10.818;2022-09-17T09:52:57;10.50;99.90
41985;DHT22;28319;48.116;10.818;2022-09-17T09:58:11;10.70;99.90
41985;DHT22;28319;48.116;10.818;2022-09-17T10:03:20;10.80;99.90
41985;DHT22;28319;48.116;10.818;2022-09-17T10:08:23;11.00;99.90
41985;DHT22;28319;48.116;10.818;2022-09-17T10:13:27;11.00;99.90
41985;DHT22;28319;48.116;10.818;2022-09-17T10:18:29;10.60;99.90
41985;DHT22;28319;48.116;10.818;2022-09-17T10:23:35;10.40;99.90
41985;DHT22;28319;48.116;10.818;2022-09-17T10:28:47;10.40;99.90
41985;DHT22;28319;48.116;10.818;2022-09-17T10:33:52;10.00;99.90
41985;DHT22;28319;48.116;10.818;2022-09-17T10:38:56;9.90;99.90
41985;DHT22;28319;48.116;10.818;2022-09-17T10:44:16;10.10;99.90
41985;DHT22;28319;48.116;10.818;2022-09-17T10:49:29;10.10;99.90
41985;DHT22;28319;48.116;10.818;2022-09-17T11:00:17;10.30;99.90
41985;DHT22;28319;48.116;10.818;2022-09-17T11:10:52;10.50;99.90
41985;DHT22;28319;48.116;10.818;2022-09-17T11:16:11;10.50;99.90
41985;DHT22;28319;48.116;10.818;2022-09-17T11:21:32;10.50;99.90
41985;DHT22;28319;48.116;10.818;2022-09-17T11:26:39;10.50;99.90
41985;DHT22;28319;48.116;10.818;2022-09-17T11:31:52;10.50;99.90
41985;DHT22;28319;48.116;10.818;2022-09-17T11:37:01;10.80;99.90
41985;DHT22;28319;48.116;10.818;2022-09-17T11:42:08;10.80;99.90
41985;DHT22;28319;48.116;10.818;2022-09-17T11:47:17;10.60;99.90
41985;DHT22;28319;48.116;10.818;2022-09-17T11:52:25;10.60;99.90
41985;DHT22;28319;48.116;10.818;2022-09-17T11:57:31;10.90;99.90
41985;DHT22;28319;48.116;10.818;2022-09-17T12:02:46;11.10;99.90
41985;DHT22;28319;48.116;10.818;2022-09-17T12:07:53;10.90;99.90
41985;DHT22;28319;48.116;10.818;2022-09-17T12:13:02;10.90;99.90
41985;DHT22;28319;48.116;10.818;2022-09-17T12:18:17;11.30;99.90
41985;DHT22;28319;48.116;10.818;2022-09-17T12:23:30;12.40;99.90
41985;DHT22;28319;48.116;10.818;2022-09-17T12:28:38;12.30;99.90
41985;DHT22;28319;48.116;10.818;2022-09-17T12:33:46;11.80;99.90
41985;DHT22;28319;48.116;10.818;2022-09-17T12:44:49;11.00;99.90
41985;DHT22;28319;48.116;10.818;2022-09-17T12:50:07;11.30;99.90
41985;DHT22;28319;48.116;10.818;2022-09-17T12:55:29;11.90;99.90
41985;DHT22;28319;48.116;10.818;2022-09-17T13:00:37;12.20;99.90
41985;DHT22;28319;48.116;10.818;2022-09-17T13:06:05;11.00;99.90
41985;DHT22;28319;48.116;10.818;2022-09-17T13:11:26;10.70;99.90
41985;DHT22;28319;48.116;10.818;2022-09-17T13:16:36;11.30;99.90
41985;DHT22;28319;48.116;10.818;2022-09-17T13:21:50;12.00;99.90
41985;DHT22;28319;48.116;10.818;2022-09-17T13:26:54;12.30;99.90
41985;DHT22;28319;48.116;10.818;2022-09-17T13:31:57;12.00;99.90
41985;DHT22;28319;48.116;10.818;2022-09-17T13:37:01;12.30;99.90
41985;DHT22;28319;48.116;10.818;2022-09-17T13:42:05;12.00;99.90
41985;DHT22;28319;48.116;10.818;2022-09-17T13:47:16;12.00;99.90
41985;DHT22;28319;48.116;10.818;2022-09-17T13:52:33;12.30;99.90
41985;DHT22;28319;48.116;10.818;2022-09-17T13:57:48;12.00;99.80
41985;DHT22;28319;48.116;10.818;2022-09-17T14:02:51;11.90;99.90
41985;DHT22;28319;48.116;10.818;2022-09-17T14:08:10;12.00;99.90
41985;DHT22;28319;48.116;10.818;2022-09-17T14:13:43;12.30;99.00
41985;DHT22;28319;48.116;10.818;2022-09-17T14:18:56;12.10;99.80
41985;DHT22;28319;48.116;10.818;2022-09-17T14:24:02;12.20;99.90
41985;DHT22;28319;48.116;10.818;2022-09-17T14:29:12;12.00;99.90
41985;DHT22;28319;48.116;10.818;2022-09-17T14:34:20;11.00;99.90
41985;DHT22;28319;48.116;10.818;2022-09-17T14:39:27;9.90;99.90
41985;DHT22;28319;48.116;10.818;2022-09-17T14:44:31;9.70;99.90
41985;DHT22;28319;48.116;10.818;2022-09-17T14:49:36;9.80;99.90
41985;DHT22;28319;48.116;10.818;2022-09-17T14:54:40;10.10;99.90
41985;DHT22;28319;48.116;10.818;2022-09-17T14:59:48;10.20;99.90
41985;DHT22;28319;48.116;10.818;2022-09-17T15:04:51;10.20;99.90
41985;DHT22;28319;48.116;10.818;2022-09-17T15:10:05;10.30;99.90
41985;DHT22;28319;48.116;10.818;2022-09-17T15:15:18;10.20;99.90
41985;DHT22;28319;48.116;10.818;2022-09-17T15:20:23;10.30;99.90
41985;DHT22;28319;48.116;10.818;2022-09-17T15:25:29;10.20;99.90
41985;DHT22;28319;48.116;10.818;2022-09-17T15:30:31;10.20;99.90
41985;DHT22;28319;48.116;10.818;2022-09-17T15:35:34;10.20;99.90
41985;DHT22;28319;48.116;10.818;2022-09-17T15:40:39;10.20;99.90
41985;DHT22;28319;48.116;10.818;2022-09-17T15:45:41;10.20;99.90
41985;DHT22;28319;48.116;10.818;2022-09-17T15:50:50;10.10;99.90
41985;DHT22;28319;48.116;10.818;2022-09-17T15:56:16;9.90;99.90
41985;DHT22;28319;48.116;10.818;2022-09-17T16:01:51;9.20;99.90
41985;DHT22;28319;48.116;10.818;2022-09-17T16:06:56;8.90;99.90
41985;DHT22;28319;48.116;10.818;2022-09-17T16:12:00;8.70;99.90
41985;DHT22;28319;48.116;10.818;2022-09-17T16:22:35;8.90;99.90
41985;DHT22;28319;48.116;10.818;2022-09-17T16:27:45;9.00;99.90
41985;DHT22;28319;48.116;10.818;2022-09-17T16:32:49;9.10;99.90
41985;DHT22;28319;48.116;10.818;2022-09-17T16:37:52;9.10;99.90
41985;DHT22;28319;48.116;10.818;2022-09-17T16:42:58;9.20;99.90
41985;DHT22;28319;48.116;10.818;2022-09-17T16:48:02;9.20;99.90
41985;DHT22;28319;48.116;10.818;2022-09-17T16:53:04;9.20;99.90
41985;DHT22;28319;48.116;10.818;2022-09-17T16:58:07;9.00;99.90
41985;DHT22;28319;48.116;10.818;2022-09-17T17:03:11;9.10;99.90
41985;DHT22;28319;48.116;10.818;2022-09-17T17:08:13;9.00;99.90
41985;DHT22;28319;48.116;10.818;2022-09-17T17:13:16;9.10;99.90
41985;DHT22;28319;48.116;10.818;2022-09-17T17:18:19;9.00;99.90
41985;DHT22;28319;48.116;10.818;2022-09-17T17:23:21;9.00;99.90
41985;DHT22;28319;48.116;10.818;2022-09-17T17:28:24;8.90;99.90
41985;DHT22;28319;48.116;10.818;2022-09-17T17:33:26;8.80;99.90
41985;DHT22;28319;48.116;10.818;2022-09-17T17:38:28;8.80;99.90
41985;DHT22;28319;48.116;10.818;2022-09-17T17:43:32;8.70;99.90
41985;DHT22;28319;48.116;10.818;2022-09-17T17:48:34;8.70;99.90
41985;DHT22;28319;48.116;10.818;2022-09-17T17:53:36;8.60;99.90
41985;DHT22;28319;48.116;10.818;2022-09-17T17:58:43;8.70;99.90
41985;DHT22;28319;48.116;10.818;2022-09-17T18:03:45;8.50;99.90
41985;DHT22;28319;48.116;10.818;2022-09-17T18:08:47;8.60;99.90
41985;DHT22;28319;48.116;10.818;2022-09-17T18:13:52;8.50;99.90
41985;DHT22;28319;48.116;10.818;2022-09-17T18:18:55;8.40;99.90
41985;DHT22;28319;48.116;10.818;2022-09-17T18:23:57;8.40;99.90
41985;DHT22;28319;48.116;10.818;2022-09-17T18:29:01;8.40;99.90
41985;DHT22;28319;48.116;10.818;2022-09-17T18:34:04;8.30;99.90
41985;DHT22;28319;48.116;10.818;2022-09-17T18:39:10;8.30;99.90
41985;DHT22;28319;48.116;10.818;2022-09-17T18:44:14;8.40;99.90
41985;DHT22;28319;48.116;10.818;2022-09-17T18:49:18;8.40;99.90
41985;DHT22;28319;48.116;10.818;2022-09-17T18:54:20;8.40;99.90
41985;DHT22;28319;48.116;10.818;2022-09-17T18:59:23;8.40;99.90
41985;DHT22;28319;48.116;10.818;2022-09-17T19:04:25;8.40;99.90
41985;DHT22;28319;48.116;10.818;2022-09-17T19:09:28;8.40;99.90
41985;DHT22;28319;48.116;10.818;2022-09-17T19:14:32;8.40;99.90
41985;DHT22;28319;48.116;10.818;2022-09-17T19:19:34;8.40;99.90
41985;DHT22;28319;48.116;10.818;2022-09-17T19:24:36;8.40;99.90
41985;DHT22;28319;48.116;10.818;2022-09-17T19:29:39;8.40;99.90
41985;DHT22;28319;48.116;10.818;2022-09-17T19:34:42;8.40;99.90
41985;DHT22;28319;48.116;10.818;2022-09-17T19:39:43;8.40;99.90
41985;DHT22;28319;48.116;10.818;2022-09-17T19:44:47;8.50;99.90
41985;DHT22;28319;48.116;10.818;2022-09-17T19:49:49;8.60;99.90
41985;DHT22;28319;48.116;10.818;2022-09-17T19:54:52;8.70;99.90
41985;DHT22;28319;48.116;10.818;2022-09-17T19:59:55;8.70;99.90
41985;DHT22;28319;48.116;10.818;2022-09-17T20:04:57;8.80;99.90
41985;DHT22;28319;48.116;10.818;2022-09-17T20:09:59;8.70;99.90
41985;DHT22;28319;48.116;10.818;2022-09-17T20:15:04;8.80;99.90
41985;DHT22;28319;48.116;10.818;2022-09-17T20:20:06;8.80;99.90
41985;DHT22;28319;48.116;10.818;2022-09-17T20:25:09;8.80;99.90
41985;DHT22;28319;48.116;10.818;2022-09-17T20:30:12;8.80;99.90
41985;DHT22;28319;48.116;10.818;2022-09-17T20:35:14;8.80;99.90
41985;DHT22;28319;48.116;10.818;2022-09-17T20:40:16;8.80;99.90
41985;DHT22;28319;48.116;10.818;2022-09-17T20:45:20;8.80;99.90
41985;DHT22;28319;48.116;10.818;2022-09-17T20:50:22;8.80;99.90
41985;DHT22;28319;48.116;10.818;2022-09-17T20:55:24;8.80;99.90
41985;DHT22;28319;48.116;10.818;2022-09-17T21:00:27;8.80;99.90
41985;DHT22;28319;48.116;10.818;2022-09-17T21:05:30;8.80;99.90
41985;DHT22;28319;48.116;10.818;2022-09-17T21:10:32;8.80;99.90
41985;DHT22;28319;48.116;10.818;2022-09-17T21:15:36;8.70;99.90
41985;DHT22;28319;48.116;10.818;2022-09-17T21:20:38;8.70;99.90
41985;DHT22;28319;48.116;10.818;2022-09-17T21:25:40;8.70;99.90
41985;DHT22;28319;48.116;10.818;2022-09-17T21:30:44;8.70;99.90
41985;DHT22;28319;48.116;10.818;2022-09-17T21:35:47;8.70;99.90
41985;DHT22;28319;48.116;10.818;2022-09-17T21:46:11;8.40;99.90
41985;DHT22;28319;48.116;10.818;2022-09-17T21:51:15;8.30;99.90
41985;DHT22;28319;48.116;10.818;2022-09-17T21:56:19;8.20;99.90
41985;DHT22;28319;48.116;10.818;2022-09-17T22:01:25;8.10;99.90
41985;DHT22;28319;48.116;10.818;2022-09-17T22:06:28;8.10;99.90
41985;DHT22;28319;48.116;10.818;2022-09-17T22:11:33;8.10;99.90
41985;DHT22;28319;48.116;10.818;2022-09-17T22:16:40;8.00;99.90
41985;DHT22;28319;48.116;10.818;2022-09-17T22:21:44;7.90;99.90
41985;DHT22;28319;48.116;10.818;2022-09-17T22:26:48;7.90;99.90
41985;DHT22;28319;48.116;10.818;2022-09-17T22:31:52;7.90;99.90
41985;DHT22;28319;48.116;10.818;2022-09-17T22:36:54;7.90;99.90
41985;DHT22;28319;48.116;10.818;2022-09-17T22:41:56;7.90;99.90
41985;DHT22;28319;48.116;10.818;2022-09-17T22:47:00;7.90;99.90
41985;DHT22;28319;48.116;10.818;2022-09-17T22:52:02;7.90;99.90
41985;DHT22;28319;48.116;10.818;2022-09-17T22:57:05;8.00;99.90
41985;DHT22;28319;48.116;10.818;2022-09-17T23:02:09;8.10;99.90
41985;DHT22;28319;48.116;10.818;2022-09-17T23:07:11;8.00;99.90
41985;DHT22;28319;48.116;10.818;2022-09-17T23:12:13;8.10;99.90
41985;DHT22;28319;48.116;10.818;2022-09-17T23:17:17;8.10;99.90
41985;DHT22;28319;48.116;10.818;2022-09-17T23:22:19;8.10;99.90
41985;DHT22;28319;48.116;10.818;2022-09-17T23:27:22;8.10;99.90
41985;DHT22;28319;48.116;10.818;2022-09-17T23:32:26;8.10;99.90
41985;DHT22;28319;48.116;10.818;2022-09-17T23:37:28;8.10;99.90
41985;DHT22;28319;48.116;10.818;2022-09-17T23:42:33;8.00;99.90
41985;DHT22;28319;48.116;10.818;2022-09-17T23:47:38;7.90;99.90
41985;DHT22;28319;48.116;10.818;2022-09-17T23:52:40;7.80;99.90
41985;DHT22;28319;48.116;10.818;2022-09-17T23:57:42;7.80;99.90
